Time;durP1;ratioP1;P1;durP2;ratioP2;P2;SDS_P1;SDS_P2;PMS_P1;PMS_P2;Temp;Humidity;BMP_temperature;BMP_pressure;BME280_temperature;BME280_humidity;BME280_pressure;Samples;Min_cycle;Max_cycle;Signal;HPM_P1;HPM_P2
2023/04/30 00:01:22;;;;;;;50.60;27.15;;;;;;;;;;6318616;22;20019;-79
2023/04/30 00:04:08;;;;;;;136.60;41.80;;;;;;;;;;6319329;22;20015;-79
2023/04/30 00:06:52;;;;;;;125.40;28.17;;;;;;;;;;6295455;22;20015;-80
2023/04/30 00:09:38;;;;;;;54.30;28.20;;;;;;;;;;6318965;22;20019;-79
2023/04/30 00:12:24;;;;;;;1329.90;541.03;;;;;;;;;;6318640;22;20372;-79
2023/04/30 00:15:10;;;;;;;1999.90;999.90;;;;;;;;;;6295446;22;20019;-79
2023/04/30 00:17:56;;;;;;;46.15;36.08;;;;;;;;;;6318603;22;20019;-79
2023/04/30 00:20:41;;;;;;;44.40;26.88;;;;;;;;;;6318456;22;20344;-79
2023/04/30 00:23:27;;;;;;;42.90;23.55;;;;;;;;;;6318603;22;20424;-79
2023/04/30 00:26:12;;;;;;;31.88;24.52;;;;;;;;;;6320375;22;20344;-80
2023/04/30 00:29:01;;;;;;;35.08;20.67;;;;;;;;;;6288020;22;20019;-79
2023/04/30 00:31:47;;;;;;;36.15;23.27;;;;;;;;;;6287799;22;20012;-78
2023/04/30 00:34:32;;;;;;;39.15;24.20;;;;;;;;;;6288978;22;20020;-78
2023/04/30 00:37:17;;;;;;;39.10;27.85;;;;;;;;;;6289121;22;20019;-78
2023/04/30 00:40:03;;;;;;;39.65;30.48;;;;;;;;;;6288174;22;20020;-78
2023/04/30 00:42:48;;;;;;;40.60;29.35;;;;;;;;;;6288470;22;20023;-79
2023/04/30 00:45:33;;;;;;;39.40;22.60;;;;;;;;;;6286455;22;20019;-79
2023/04/30 00:48:18;;;;;;;37.33;22.67;;;;;;;;;;6287533;22;20437;-80
2023/04/30 00:51:04;;;;;;;35.75;23.33;;;;;;;;;;6286294;22;20074;-79
2023/04/30 00:53:49;;;;;;;46.67;26.15;;;;;;;;;;6286182;22;20023;-79
2023/04/30 00:56:35;;;;;;;41.10;24.17;;;;;;;;;;6287147;22;20019;-79
2023/04/30 00:59:20;;;;;;;51.28;26.85;;;;;;;;;;6285913;22;20019;-79
2023/04/30 01:02:06;;;;;;;54.00;39.08;;;;;;;;;;6286254;22;20019;-79
2023/04/30 01:04:52;;;;;;;139.50;126.35;;;;;;;;;;6286051;22;20015;-79
2023/04/30 01:07:43;;;;;;;292.77;271.05;;;;;;;;;;6287186;22;20012;-79
2023/04/30 01:10:34;;;;;;;1999.90;999.90;;;;;;;;;;6287043;22;20318;-78
2023/04/30 01:13:33;;;;;;;1999.90;999.90;;;;;;;;;;6287430;22;20015;-81
2023/04/30 01:16:27;;;;;;;1999.90;999.90;;;;;;;;;;6286314;22;20306;-80
2023/04/30 01:19:19;;;;;;;151.27;139.93;;;;;;;;;;6287462;22;20019;-80
2023/04/30 01:22:08;;;;;;;47.05;37.22;;;;;;;;;;6285565;22;20426;-80
2023/04/30 01:25:12;;;;;;;76.70;69.45;;;;;;;;;;6285718;22;20023;-80
2023/04/30 01:28:01;;;;;;;42.58;37.97;;;;;;;;;;6286090;22;20027;-80
2023/04/30 01:30:46;;;;;;;142.55;131.23;;;;;;;;;;6285868;22;20015;-78
2023/04/30 01:33:31;;;;;;;1999.90;999.90;;;;;;;;;;6285768;22;20023;-78
2023/04/30 01:36:30;;;;;;;1999.90;999.90;;;;;;;;;;6278295;22;20015;-77
2023/04/30 01:39:49;;;;;;;565.70;310.70;;;;;;;;;;6289072;22;20326;-79
2023/04/30 01:42:44;;;;;;;1999.90;999.90;;;;;;;;;;6278104;22;20433;-81
2023/04/30 01:45:30;;;;;;;;;;;;;;;;;;6288120;22;20019;-78
2023/04/30 01:48:34;;;;;;;1999.90;999.90;;;;;;;;;;6289012;22;20309;-78
2023/04/30 01:51:46;;;;;;;1999.90;999.90;;;;;;;;;;6288295;22;20016;-75
2023/04/30 01:54:48;;;;;;;1999.90;999.90;;;;;;;;;;6288100;22;20023;-79
2023/04/30 01:57:42;;;;;;;113.85;104.35;;;;;;;;;;6287773;22;20015;-78
2023/04/30 02:00:32;;;;;;;1999.90;999.90;;;;;;;;;;6287499;22;20020;-80
2023/04/30 02:03:18;;;;;;;109.00;100.65;;;;;;;;;;6288498;22;20020;-79
2023/04/30 02:06:04;;;;;;;109.35;100.63;;;;;;;;;;6287850;22;20016;-79
2023/04/30 02:08:55;;;;;;;577.65;321.92;;;;;;;;;;6287819;22;20016;-77
2023/04/30 02:11:42;;;;;;;93.97;86.68;;;;;;;;;;6287583;22;20020;-78
2023/04/30 02:14:30;;;;;;;103.85;95.93;;;;;;;;;;6287477;22;20024;-78
2023/04/30 02:17:20;;;;;;;87.72;81.55;;;;;;;;;;6287857;22;20020;-78
2023/04/30 02:20:06;;;;;;;72.07;66.50;;;;;;;;;;6288486;22;20020;-79
2023/04/30 02:22:55;;;;;;;105.72;98.10;;;;;;;;;;6288959;22;20020;-78
2023/04/30 02:25:41;;;;;;;110.15;102.10;;;;;;;;;;6287599;22;20016;-79
2023/04/30 02:28:31;;;;;;;101.38;93.13;;;;;;;;;;6300387;22;20016;-78
2023/04/30 02:31:17;;;;;;;122.07;112.55;;;;;;;;;;6319615;22;20023;-78
2023/04/30 02:34:04;;;;;;;115.00;106.18;;;;;;;;;;6319720;22;20330;-80
2023/04/30 02:36:50;;;;;;;110.75;102.75;;;;;;;;;;6319924;22;20421;-79
2023/04/30 02:39:35;;;;;;;99.47;92.22;;;;;;;;;;6296465;22;20019;-79
2023/04/30 02:42:20;;;;;;;106.55;97.85;;;;;;;;;;6319294;22;20024;-79
2023/04/30 02:45:06;;;;;;;1141.68;632.10;;;;;;;;;;6319894;22;20023;-79
2023/04/30 02:47:51;;;;;;;192.15;178.52;;;;;;;;;;6295466;22;20023;-78
2023/04/30 02:50:36;;;;;;;56.30;51.28;;;;;;;;;;6295851;22;20021;-78
2023/04/30 02:53:21;;;;;;;140.23;130.25;;;;;;;;;;6319449;22;20023;-78
2023/04/30 02:56:07;;;;;;;146.02;135.93;;;;;;;;;;6296091;22;20019;-78
2023/04/30 02:58:52;;;;;;;143.77;133.75;;;;;;;;;;6319289;22;20019;-78
2023/04/30 03:01:37;;;;;;;120.60;112.50;;;;;;;;;;6296112;22;20016;-79
2023/04/30 03:04:23;;;;;;;108.63;100.70;;;;;;;;;;6318856;22;20440;-78
2023/04/30 03:07:08;;;;;;;72.25;66.20;;;;;;;;;;6296645;22;20016;-79
2023/04/30 03:09:54;;;;;;;129.82;117.43;;;;;;;;;;6317900;22;20019;-79
2023/04/30 03:12:40;;;;;;;111.28;101.18;;;;;;;;;;6296033;22;20441;-79
2023/04/30 03:15:25;;;;;;;122.68;112.55;;;;;;;;;;6319048;22;20046;-79
2023/04/30 03:18:11;;;;;;;126.70;116.82;;;;;;;;;;6296044;22;20019;-79
2023/04/30 03:20:56;;;;;;;143.18;132.32;;;;;;;;;;6296272;22;20440;-80
2023/04/30 03:23:42;;;;;;;150.88;139.60;;;;;;;;;;6295804;22;20015;-79
2023/04/30 03:26:27;;;;;;;96.15;88.93;;;;;;;;;;6295699;22;20015;-79
2023/04/30 03:29:13;;;;;;;31.23;23.80;;;;;;;;;;6309743;22;20019;-80
2023/04/30 03:31:58;;;;;;;36.80;27.27;;;;;;;;;;6319186;22;20015;-80
2023/04/30 03:34:45;;;;;;;25.08;19.08;;;;;;;;;;6316476;22;20023;-80
2023/04/30 03:37:29;;;;;;;25.58;19.20;;;;;;;;;;6293195;22;20356;-80
2023/04/30 03:40:14;;;;;;;36.60;24.85;;;;;;;;;;6316395;22;20019;-80
2023/04/30 03:43:00;;;;;;;27.15;22.98;;;;;;;;;;6293220;22;20440;-80
2023/04/30 03:45:45;;;;;;;37.30;23.55;;;;;;;;;;6316407;22;20019;-80
2023/04/30 03:48:30;;;;;;;28.15;17.40;;;;;;;;;;6317414;22;20437;-80
2023/04/30 03:51:19;;;;;;;31.05;19.55;;;;;;;;;;6318700;22;20015;-80
2023/04/30 03:54:05;;;;;;;48.92;37.20;;;;;;;;;;6319586;22;20432;-79
2023/04/30 03:56:51;;;;;;;67.53;61.33;;;;;;;;;;6295866;22;20019;-80
2023/04/30 03:59:36;;;;;;;35.47;28.15;;;;;;;;;;6295287;22;20027;-80
2023/04/30 04:02:22;;;;;;;45.78;40.30;;;;;;;;;;6296135;22;20019;-79
2023/04/30 04:05:08;;;;;;;80.38;73.43;;;;;;;;;;6295581;22;20023;-80
2023/04/30 04:07:53;;;;;;;51.65;46.78;;;;;;;;;;6318751;22;20019;-79
2023/04/30 04:10:39;;;;;;;45.30;41.20;;;;;;;;;;6318717;22;20332;-80
2023/04/30 04:13:25;;;;;;;140.50;130.25;;;;;;;;;;6295481;22;20019;-77
2023/04/30 04:16:11;;;;;;;66.20;60.42;;;;;;;;;;6318651;22;20421;-80
2023/04/30 04:18:56;;;;;;;152.45;141.98;;;;;;;;;;6318740;22;20027;-78
2023/04/30 04:21:42;;;;;;;204.20;190.23;;;;;;;;;;6295392;22;20019;-78
2023/04/30 04:24:33;;;;;;;111.45;103.90;;;;;;;;;;6295819;22;20015;-79
2023/04/30 04:27:19;;;;;;;162.60;151.55;;;;;;;;;;6295127;22;20437;-79
2023/04/30 04:30:04;;;;;;;61.40;48.95;;;;;;;;;;6295452;22;20433;-78
2023/04/30 04:32:52;;;;;;;70.25;63.40;;;;;;;;;;6317058;22;20023;-78
2023/04/30 04:35:38;;;;;;;69.80;62.90;;;;;;;;;;6317280;22;20011;-78
2023/04/30 04:38:24;;;;;;;109.85;99.63;;;;;;;;;;6295660;22;20019;-78
2023/04/30 04:41:10;;;;;;;113.25;103.78;;;;;;;;;;6317151;22;20015;-79
2023/04/30 04:43:56;;;;;;;105.72;96.97;;;;;;;;;;6295403;22;20445;-79
2023/04/30 04:46:43;;;;;;;35.42;26.08;;;;;;;;;;6295124;22;20015;-80
2023/04/30 04:49:29;;;;;;;67.97;61.90;;;;;;;;;;6295470;22;20020;-79
2023/04/30 04:52:14;;;;;;;189.07;176.10;;;;;;;;;;6295338;22;20015;-79
2023/04/30 04:55:00;;;;;;;103.28;93.47;;;;;;;;;;6318138;22;20019;-79
2023/04/30 04:57:46;;;;;;;94.60;86.63;;;;;;;;;;6295685;22;20023;-79
2023/04/30 05:00:32;;;;;;;127.40;117.97;;;;;;;;;;6318519;22;20015;-79
2023/04/30 05:03:19;;;;;;;44.63;40.40;;;;;;;;;;6295144;22;20428;-79
2023/04/30 05:06:05;;;;;;;51.17;44.35;;;;;;;;;;6318297;22;20015;-79
2023/04/30 05:08:50;;;;;;;29.85;17.65;;;;;;;;;;6295185;22;20376;-79
2023/04/30 05:11:36;;;;;;;25.42;18.85;;;;;;;;;;6296468;22;20027;-79
2023/04/30 05:14:22;;;;;;;31.45;23.83;;;;;;;;;;6297536;22;20019;-79
2023/04/30 05:17:08;;;;;;;50.53;45.72;;;;;;;;;;6320739;22;20019;-78
2023/04/30 05:19:53;;;;;;;27.05;24.20;;;;;;;;;;6320383;22;20015;-78
2023/04/30 05:22:39;;;;;;;20.85;14.80;;;;;;;;;;6320333;22;20425;-78
2023/04/30 05:25:25;;;;;;;40.30;36.22;;;;;;;;;;6320322;22;20019;-77
2023/04/30 05:28:10;;;;;;;1999.90;999.90;;;;;;;;;;6315778;22;20015;-78
2023/04/30 05:30:56;;;;;;;54.15;41.60;;;;;;;;;;6320903;22;20015;-77
2023/04/30 05:33:41;;;;;;;57.60;13.52;;;;;;;;;;6320210;22;20023;-78
2023/04/30 05:36:28;;;;;;;189.50;24.25;;;;;;;;;;6320041;22;20019;-78
2023/04/30 05:39:13;;;;;;;54.67;15.32;;;;;;;;;;6320500;22;20413;-78
2023/04/30 05:41:58;;;;;;;73.60;15.25;;;;;;;;;;6320405;22;20336;-78
2023/04/30 05:44:44;;;;;;;20.65;6.22;;;;;;;;;;6319943;22;20015;-78
2023/04/30 05:47:30;;;;;;;14.30;8.63;;;;;;;;;;6320810;22;20011;-78
2023/04/30 05:50:15;;;;;;;20.73;7.95;;;;;;;;;;6320128;22;20015;-78
2023/04/30 05:53:01;;;;;;;10.35;7.22;;;;;;;;;;6319949;22;20015;-78
2023/04/30 05:55:46;;;;;;;7.85;5.53;;;;;;;;;;6320368;22;20019;-79
2023/04/30 05:58:31;;;;;;;12.32;6.72;;;;;;;;;;6319785;22;20019;-78
2023/04/30 06:01:18;;;;;;;12.38;5.75;;;;;;;;;;6320288;22;20023;-79
2023/04/30 06:04:03;;;;;;;8.48;5.45;;;;;;;;;;6319969;22;20336;-79
2023/04/30 06:06:49;;;;;;;9.93;5.75;;;;;;;;;;6320211;22;20019;-79
2023/04/30 06:09:40;;;;;;;9.65;5.90;;;;;;;;;;6319837;22;20015;-78
2023/04/30 06:12:27;;;;;;;10.18;5.75;;;;;;;;;;6319766;22;20019;-78
2023/04/30 06:15:17;;;;;;;9.38;5.75;;;;;;;;;;6319722;22;20019;-78
2023/04/30 06:18:02;;;;;;;11.00;6.00;;;;;;;;;;6319854;22;20023;-79
2023/04/30 06:20:53;;;;;;;8.45;5.80;;;;;;;;;;6319789;22;20015;-79
2023/04/30 06:23:39;;;;;;;8.10;5.25;;;;;;;;;;6319535;22;20019;-78
2023/04/30 06:26:24;;;;;;;8.82;5.40;;;;;;;;;;6319598;22;20015;-79
2023/04/30 06:29:16;;;;;;;11.23;6.03;;;;;;;;;;6310090;22;20043;-79
2023/04/30 06:32:01;;;;;;;8.15;4.60;;;;;;;;;;6319452;22;20019;-78
2023/04/30 06:34:47;;;;;;;8.13;4.95;;;;;;;;;;6319879;22;20366;-78
2023/04/30 06:37:36;;;;;;;10.00;5.38;;;;;;;;;;6319489;22;20023;-78
2023/04/30 06:40:27;;;;;;;11.65;5.75;;;;;;;;;;6319221;22;20019;-80
2023/04/30 06:43:18;;;;;;;9.93;5.90;;;;;;;;;;6319625;22;20019;-80
2023/04/30 06:46:05;;;;;;;9.40;5.40;;;;;;;;;;6319537;22;20016;-80
2023/04/30 06:48:50;;;;;;;11.85;5.05;;;;;;;;;;6319313;22;20015;-80
2023/04/30 06:51:40;;;;;;;10.57;5.63;;;;;;;;;;6319378;22;20019;-77
2023/04/30 06:54:30;;;;;;;11.52;5.45;;;;;;;;;;6319155;22;20432;-78
2023/04/30 06:57:17;;;;;;;9.40;5.03;;;;;;;;;;6319302;22;20011;-78
2023/04/30 07:00:05;;;;;;;10.18;6.00;;;;;;;;;;6319077;22;20012;-79
2023/04/30 07:02:51;;;;;;;12.40;5.28;;;;;;;;;;6319337;22;20019;-79
2023/04/30 07:05:37;;;;;;;9.15;5.07;;;;;;;;;;6319410;22;20420;-79
2023/04/30 07:08:23;;;;;;;10.40;4.82;;;;;;;;;;6319091;22;20019;-79
2023/04/30 07:11:09;;;;;;;11.00;5.13;;;;;;;;;;6319494;22;20015;-79
2023/04/30 07:13:57;;;;;;;12.30;5.40;;;;;;;;;;6319030;22;20019;-79
2023/04/30 07:16:48;;;;;;;7.22;4.65;;;;;;;;;;6319227;22;20019;-79
2023/04/30 07:19:34;;;;;;;7.22;4.35;;;;;;;;;;6319104;22;20020;-79
2023/04/30 07:22:20;;;;;;;9.10;4.78;;;;;;;;;;6319076;22;20015;-79
2023/04/30 07:25:12;;;;;;;16.77;5.50;;;;;;;;;;6318761;22;20019;-79
2023/04/30 07:27:59;;;;;;;7.22;4.65;;;;;;;;;;6303492;22;20337;-79
2023/04/30 07:30:44;;;;;;;8.95;4.70;;;;;;;;;;6287937;22;20016;-79
2023/04/30 07:33:34;;;;;;;8.35;4.82;;;;;;;;;;6287556;22;20349;-80
2023/04/30 07:36:21;;;;;;;10.57;4.88;;;;;;;;;;6287773;22;20016;-79
2023/04/30 07:39:10;;;;;;;8.50;5.30;;;;;;;;;;6287817;22;20019;-79
2023/04/30 07:41:56;;;;;;;10.20;4.80;;;;;;;;;;6287686;22;20015;-79
2023/04/30 07:44:42;;;;;;;11.85;5.47;;;;;;;;;;6287619;22;20020;-79
2023/04/30 07:47:27;;;;;;;10.18;5.97;;;;;;;;;;6287870;22;20019;-80
2023/04/30 07:50:15;;;;;;;8.57;4.38;;;;;;;;;;6287591;22;20439;-79
2023/04/30 07:53:08;;;;;;;9.45;5.82;;;;;;;;;;6287515;22;20015;-79
2023/04/30 07:55:59;;;;;;;11.90;5.40;;;;;;;;;;6287338;22;20019;-80
2023/04/30 07:58:45;;;;;;;10.85;4.80;;;;;;;;;;6287616;22;20433;-80
2023/04/30 08:01:31;;;;;;;8.82;5.13;;;;;;;;;;6287467;22;20317;-80
2023/04/30 08:04:16;;;;;;;9.25;5.03;;;;;;;;;;6287296;22;20019;-80
2023/04/30 08:07:07;;;;;;;7.22;4.60;;;;;;;;;;6287588;22;20349;-80
2023/04/30 08:09:58;;;;;;;9.38;5.13;;;;;;;;;;6287393;22;20016;-78
2023/04/30 08:12:44;;;;;;;7.43;4.82;;;;;;;;;;6287528;22;20020;-79
2023/04/30 08:15:34;;;;;;;8.50;5.15;;;;;;;;;;6287838;22;20019;-79
2023/04/30 08:18:20;;;;;;;9.90;5.00;;;;;;;;;;6287227;22;20441;-79
2023/04/30 08:21:16;;;;;;;10.95;4.50;;;;;;;;;;6287380;22;20016;-79
2023/04/30 08:24:02;;;;;;;7.75;4.20;;;;;;;;;;6287704;22;20016;-79
2023/04/30 08:26:47;;;;;;;5.88;4.45;;;;;;;;;;6282275;22;20020;-80
2023/04/30 08:29:34;;;;;;;7.10;4.32;;;;;;;;;;6288011;22;20020;-79
2023/04/30 08:32:25;;;;;;;10.23;4.40;;;;;;;;;;6287029;22;20016;-79
2023/04/30 08:35:10;;;;;;;6.43;3.70;;;;;;;;;;6287085;22;20019;-79
2023/04/30 08:37:56;;;;;;;8.57;3.90;;;;;;;;;;6287092;22;20019;-80
2023/04/30 08:41:01;;;;;;;6.82;4.47;;;;;;;;;;6287641;22;20023;-80
2023/04/30 08:43:51;;;;;;;8.38;4.30;;;;;;;;;;6287275;22;20024;-78
2023/04/30 08:46:38;;;;;;;10.52;4.53;;;;;;;;;;6287010;22;20019;-79
2023/04/30 08:49:24;;;;;;;8.27;4.57;;;;;;;;;;6287182;22;20016;-77
2023/04/30 08:52:11;;;;;;;8.65;4.20;;;;;;;;;;6287292;22;20020;-78
2023/04/30 08:55:06;;;;;;;9.35;5.03;;;;;;;;;;6287983;22;20023;-78
2023/04/30 08:57:52;;;;;;;9.65;4.70;;;;;;;;;;6288200;22;20329;-81
2023/04/30 09:00:39;;;;;;;8.82;5.20;;;;;;;;;;6288297;22;20437;-76
2023/04/30 09:03:30;;;;;;;6.55;4.32;;;;;;;;;;6293430;22;20422;-77
2023/04/30 09:06:16;;;;;;;8.05;5.05;;;;;;;;;;6290982;22;20449;-79
2023/04/30 09:09:11;;;;;;;10.98;4.85;;;;;;;;;;6292909;22;20015;-79
2023/04/30 09:12:12;;;;;;;11.23;5.68;;;;;;;;;;6287873;22;20020;-79
2023/04/30 09:15:08;;;;;;;9.02;4.50;;;;;;;;;;6286963;22;20126;-77
2023/04/30 09:18:16;;;;;;;11.23;5.13;;;;;;;;;;6287139;22;20019;-77
2023/04/30 09:21:04;;;;;;;6.82;4.80;;;;;;;;;;6289429;22;20020;-77
2023/04/30 09:24:00;;;;;;;8.30;5.10;;;;;;;;;;6294550;22;20019;-78
2023/04/30 09:26:46;;;;;;;10.43;4.78;;;;;;;;;;6295055;22;20015;-78
2023/04/30 09:29:36;;;;;;;9.38;4.40;;;;;;;;;;6282603;22;20019;-78
2023/04/30 09:32:27;;;;;;;9.90;4.88;;;;;;;;;;6296486;22;20015;-79
2023/04/30 09:35:30;;;;;;;9.23;6.10;;;;;;;;;;6297077;22;20344;-78
2023/04/30 09:38:32;;;;;;;7.35;4.22;;;;;;;;;;6292950;22;20016;-77
2023/04/30 09:41:35;;;;;;;10.35;4.88;;;;;;;;;;6292175;22;20020;-78
2023/04/30 09:44:29;;;;;;;5.70;3.65;;;;;;;;;;6293207;22;20020;-78
2023/04/30 09:47:18;;;;;;;8.02;3.42;;;;;;;;;;6296125;22;20019;-78
2023/04/30 09:50:04;;;;;;;5.68;3.00;;;;;;;;;;6292817;22;20020;-78
2023/04/30 09:53:05;;;;;;;6.38;2.67;;;;;;;;;;6294858;22;20019;-78
2023/04/30 09:55:51;;;;;;;10.27;3.20;;;;;;;;;;6290829;22;20023;-78
2023/04/30 09:58:37;;;;;;;3.72;2.65;;;;;;;;;;6290898;22;20011;-77
2023/04/30 10:01:28;;;;;;;5.93;2.58;;;;;;;;;;6288418;22;20019;-77
2023/04/30 10:04:14;;;;;;;5.88;2.78;;;;;;;;;;6289599;22;20016;-78
2023/04/30 10:07:14;;;;;;;6.68;3.33;;;;;;;;;;6290591;22;20015;-80
2023/04/30 10:10:08;;;;;;;6.38;3.30;;;;;;;;;;6289565;22;20016;-76
2023/04/30 10:13:02;;;;;;;5.32;2.80;;;;;;;;;;6289153;22;20016;-78
2023/04/30 10:15:51;;;;;;;8.25;3.42;;;;;;;;;;6289243;22;20021;-77
2023/04/30 10:18:43;;;;;;;5.78;2.60;;;;;;;;;;6289025;22;20019;-77
2023/04/30 10:21:34;;;;;;;5.25;3.00;;;;;;;;;;6288493;22;20019;-78
2023/04/30 10:24:20;;;;;;;4.75;3.08;;;;;;;;;;6291037;22;20066;-73
2023/04/30 10:27:05;;;;;;;4.75;2.90;;;;;;;;;;6290925;22;20016;-75
2023/04/30 10:29:53;;;;;;;9.82;3.42;;;;;;;;;;6289967;22;20020;-74
2023/04/30 10:33:14;;;;;;;9.98;4.22;;;;;;;;;;6290638;22;20015;-74
2023/04/30 10:36:10;;;;;;;5.80;3.95;;;;;;;;;;6271631;22;20024;-77
2023/04/30 10:38:59;;;;;;;7.03;3.00;;;;;;;;;;6293485;22;20037;-77
2023/04/30 10:41:48;;;;;;;6.57;3.22;;;;;;;;;;6294549;22;20019;-77
2023/04/30 10:44:37;;;;;;;4.85;2.90;;;;;;;;;;6289344;22;20016;-78
2023/04/30 10:47:29;;;;;;;6.05;3.10;;;;;;;;;;6289239;22;20019;-77
2023/04/30 10:50:16;;;;;;;9.32;4.00;;;;;;;;;;6288648;22;20023;-77
2023/04/30 10:53:02;;;;;;;5.97;3.08;;;;;;;;;;6289553;22;20337;-79
2023/04/30 10:56:07;;;;;;;7.38;3.63;;;;;;;;;;6292331;22;20020;-79
2023/04/30 10:58:53;;;;;;;2.92;2.42;;;;;;;;;;6290979;22;20016;-80
2023/04/30 11:02:03;;;;;;;3.42;3.08;;;;;;;;;;6291594;22;20015;-79
2023/04/30 11:05:05;;;;;;;6.65;3.70;;;;;;;;;;6291943;22;20016;-79
2023/04/30 11:07:56;;;;;;;5.95;3.42;;;;;;;;;;6291838;22;20020;-80
2023/04/30 11:11:03;;;;;;;7.63;3.00;;;;;;;;;;6290084;22;20016;-82
2023/04/30 11:13:59;;;;;;;4.65;2.90;;;;;;;;;;6289657;22;20334;-79
2023/04/30 11:16:52;;;;;;;6.20;3.30;;;;;;;;;;6290486;22;20024;-79
2023/04/30 11:19:46;;;;;;;4.97;2.78;;;;;;;;;;6288575;22;20019;-77
2023/04/30 11:22:35;;;;;;;6.32;3.10;;;;;;;;;;6293812;22;20016;-77
2023/04/30 11:25:22;;;;;;;6.20;3.33;;;;;;;;;;6292638;22;20345;-77
2023/04/30 11:28:18;;;;;;;6.28;3.15;;;;;;;;;;6284059;22;20440;-79
2023/04/30 11:31:04;;;;;;;5.13;2.90;;;;;;;;;;6288107;22;20015;-76
2023/04/30 11:33:51;;;;;;;6.75;2.85;;;;;;;;;;6288815;22;20344;-78
2023/04/30 11:36:37;;;;;;;3.60;2.95;;;;;;;;;;6288057;22;20023;-82
2023/04/30 11:39:25;;;;;;;6.20;3.08;;;;;;;;;;6277344;22;20016;-80
2023/04/30 11:42:16;;;;;;;4.57;2.58;;;;;;;;;;6288185;22;20019;-79
2023/04/30 11:45:11;;;;;;;5.47;2.90;;;;;;;;;;6287743;22;20020;-80
2023/04/30 11:47:57;;;;;;;5.97;3.13;;;;;;;;;;6287767;22;20023;-79
2023/04/30 11:50:44;;;;;;;5.40;2.88;;;;;;;;;;6287569;22;20019;-77
2023/04/30 11:53:29;;;;;;;4.70;3.10;;;;;;;;;;6287666;22;20020;-77
2023/04/30 11:56:23;;;;;;;4.60;2.95;;;;;;;;;;6288022;22;20024;-78
2023/04/30 11:59:12;;;;;;;7.97;3.28;;;;;;;;;;6287974;22;20337;-75
2023/04/30 12:01:57;;;;;;;5.82;3.92;;;;;;;;;;6287429;22;20437;-77
2023/04/30 12:04:48;;;;;;;8.35;2.70;;;;;;;;;;6287663;22;20019;-77
2023/04/30 12:07:33;;;;;;;6.35;3.13;;;;;;;;;;6287808;22;20020;-77
2023/04/30 12:10:19;;;;;;;9.90;3.47;;;;;;;;;;6288236;22;20016;-77
2023/04/30 12:13:04;;;;;;;6.80;2.90;;;;;;;;;;6287872;22;20024;-77
2023/04/30 12:15:59;;;;;;;5.45;3.00;;;;;;;;;;6286171;22;20016;-77
2023/04/30 12:18:51;;;;;;;4.30;2.78;;;;;;;;;;6287529;22;20449;-77
2023/04/30 12:21:46;;;;;;;4.90;2.70;;;;;;;;;;6287023;22;20019;-77
2023/04/30 12:24:31;;;;;;;4.88;2.70;;;;;;;;;;6287276;22;20349;-77
2023/04/30 12:27:17;;;;;;;4.85;3.10;;;;;;;;;;6287009;22;20011;-77
2023/04/30 12:30:08;;;;;;;5.38;3.05;;;;;;;;;;6287325;22;20019;-77
2023/04/30 12:32:56;;;;;;;5.15;3.00;;;;;;;;;;6288259;22;20015;-77
2023/04/30 12:35:43;;;;;;;5.72;3.25;;;;;;;;;;6288596;22;20031;-77
2023/04/30 12:38:28;;;;;;;4.75;3.38;;;;;;;;;;6288514;22;20019;-77
2023/04/30 12:41:16;;;;;;;4.53;3.10;;;;;;;;;;6288451;22;20019;-78
2023/04/30 12:44:20;;;;;;;6.13;3.30;;;;;;;;;;6287868;22;20019;-77
2023/04/30 12:47:08;;;;;;;5.80;3.20;;;;;;;;;;6288154;22;20020;-77
2023/04/30 12:49:55;;;;;;;5.15;3.30;;;;;;;;;;6288147;22;20016;-77
2023/04/30 12:52:40;;;;;;;16.23;4.28;;;;;;;;;;6286809;22;20020;-77
2023/04/30 12:55:27;;;;;;;4.72;2.80;;;;;;;;;;6287190;22;20337;-77
2023/04/30 12:58:13;;;;;;;57.65;6.10;;;;;;;;;;6287209;22;20023;-77
2023/04/30 13:00:59;;;;;;;33.65;4.38;;;;;;;;;;6286781;22;20020;-78
2023/04/30 13:03:46;;;;;;;8.45;2.35;;;;;;;;;;6286568;22;20015;-79
2023/04/30 13:06:34;;;;;;;58.10;5.22;;;;;;;;;;6286961;22;20015;-77
2023/04/30 13:09:21;;;;;;;5.78;2.10;;;;;;;;;;6287666;22;20016;-79
2023/04/30 13:12:06;;;;;;;4.43;2.63;;;;;;;;;;6287097;22;20023;-79
2023/04/30 13:14:51;;;;;;;3.75;2.90;;;;;;;;;;6287087;22;20020;-76
2023/04/30 13:17:38;;;;;;;4.72;3.72;;;;;;;;;;6286844;22;20011;-76
2023/04/30 13:20:26;;;;;;;5.70;3.55;;;;;;;;;;6288050;22;20433;-79
2023/04/30 13:23:12;;;;;;;5.38;3.60;;;;;;;;;;6286968;22;20019;-78
2023/04/30 13:25:58;;;;;;;7.65;4.07;;;;;;;;;;6286858;22;20033;-79
2023/04/30 13:28:44;;;;;;;6.65;3.92;;;;;;;;;;6280920;22;20015;-78
2023/04/30 13:31:30;;;;;;;6.72;4.63;;;;;;;;;;6287208;22;20012;-80
2023/04/30 13:34:20;;;;;;;8.45;5.30;;;;;;;;;;6289819;22;20011;-78
2023/04/30 13:37:07;;;;;;;197.93;20.05;;;;;;;;;;6287734;22;20019;-78
2023/04/30 13:39:53;;;;;;;12.02;8.00;;;;;;;;;;6287719;22;20019;-77
2023/04/30 13:42:41;;;;;;;11.77;6.90;;;;;;;;;;6289075;22;20012;-78
2023/04/30 13:45:31;;;;;;;31.02;20.85;;;;;;;;;;6288334;22;20225;-78
2023/04/30 13:48:17;;;;;;;17.25;10.77;;;;;;;;;;6289151;22;20020;-78
2023/04/30 13:51:04;;;;;;;9.85;6.03;;;;;;;;;;6287252;22;20012;-78
2023/04/30 13:53:49;;;;;;;17.17;10.52;;;;;;;;;;6287963;22;20019;-78
2023/04/30 13:56:37;;;;;;;11.85;8.15;;;;;;;;;;6288415;22;20016;-78
2023/04/30 13:59:23;;;;;;;9.38;6.70;;;;;;;;;;6288481;22;20016;-78
2023/04/30 14:02:08;;;;;;;4.78;3.90;;;;;;;;;;6289256;22;20027;-79
2023/04/30 14:04:59;;;;;;;9.13;4.70;;;;;;;;;;6289110;22;20020;-77
2023/04/30 14:07:49;;;;;;;44.38;5.72;;;;;;;;;;6288815;22;20019;-77
2023/04/30 14:10:36;;;;;;;5.63;4.43;;;;;;;;;;6288676;22;20020;-78
2023/04/30 14:13:28;;;;;;;5.03;4.00;;;;;;;;;;6288920;22;20020;-78
2023/04/30 14:16:14;;;;;;;7.13;3.83;;;;;;;;;;6288915;22;20429;-78
2023/04/30 14:19:29;;;;;;;6.40;4.00;;;;;;;;;;6288281;22;20429;-77
2023/04/30 14:22:19;;;;;;;7.00;4.13;;;;;;;;;;6288339;22;20012;-79
2023/04/30 14:25:11;;;;;;;5.50;3.42;;;;;;;;;;6288622;22;20015;-78
2023/04/30 14:27:57;;;;;;;4.38;3.10;;;;;;;;;;6285242;22;20019;-79
2023/04/30 14:30:43;;;;;;;6.88;4.25;;;;;;;;;;6287219;22;20016;-78
2023/04/30 14:33:30;;;;;;;8.65;4.63;;;;;;;;;;6288979;22;20016;-78
2023/04/30 14:36:16;;;;;;;6.75;4.57;;;;;;;;;;6288444;22;20015;-79
2023/04/30 14:39:03;;;;;;;7.72;5.35;;;;;;;;;;6288754;22;20016;-78
2023/04/30 14:41:53;;;;;;;8.57;5.03;;;;;;;;;;6288254;22;20012;-78
2023/04/30 14:44:40;;;;;;;10.77;8.00;;;;;;;;;;6288387;22;20023;-78
2023/04/30 14:47:30;;;;;;;6.43;3.85;;;;;;;;;;6288277;22;20015;-79
2023/04/30 14:50:16;;;;;;;6.18;3.72;;;;;;;;;;6288315;22;20019;-79
2023/04/30 14:53:08;;;;;;;6.22;4.50;;;;;;;;;;6288337;22;20019;-79
2023/04/30 14:55:54;;;;;;;7.72;5.10;;;;;;;;;;6288495;22;20429;-78
2023/04/30 14:58:44;;;;;;;7.28;4.93;;;;;;;;;;6288625;22;20016;-78
2023/04/30 15:01:35;;;;;;;4.15;3.22;;;;;;;;;;6288212;22;20019;-80
2023/04/30 15:04:20;;;;;;;4.80;3.30;;;;;;;;;;6288222;22;20020;-78
2023/04/30 15:07:11;;;;;;;6.50;3.50;;;;;;;;;;6288100;22;20015;-78
2023/04/30 15:09:57;;;;;;;5.13;3.33;;;;;;;;;;6288373;22;20020;-76
2023/04/30 15:12:42;;;;;;;2.92;2.50;;;;;;;;;;6288079;22;20011;-78
2023/04/30 15:15:31;;;;;;;5.00;3.33;;;;;;;;;;6288286;22;20020;-78
2023/04/30 15:18:17;;;;;;;6.18;3.42;;;;;;;;;;6288169;22;20341;-78
2023/04/30 15:21:04;;;;;;;9.70;4.03;;;;;;;;;;6288092;22;20016;-78
2023/04/30 15:23:54;;;;;;;5.25;3.13;;;;;;;;;;6287491;22;20012;-78
2023/04/30 15:26:49;;;;;;;5.57;3.88;;;;;;;;;;6288077;22;20019;-78
2023/04/30 15:29:39;;;;;;;6.40;3.28;;;;;;;;;;6288922;22;20437;-77
2023/04/30 15:32:24;;;;;;;6.75;3.28;;;;;;;;;;6287237;22;20020;-76
2023/04/30 15:35:15;;;;;;;3.72;2.70;;;;;;;;;;6291410;22;20016;-76
2023/04/30 15:38:00;;;;;;;5.22;3.97;;;;;;;;;;6290592;22;20016;-78
2023/04/30 15:40:46;;;;;;;6.25;4.38;;;;;;;;;;6289214;22;20016;-77
2023/04/30 15:43:37;;;;;;;4.85;3.20;;;;;;;;;;6290058;22;20015;-76
2023/04/30 15:46:22;;;;;;;11.40;6.22;;;;;;;;;;6289545;22;20027;-75
2023/04/30 15:49:08;;;;;;;9.18;5.45;;;;;;;;;;6289975;22;20016;-77
2023/04/30 15:51:58;;;;;;;19.45;9.93;;;;;;;;;;6292757;22;20019;-76
2023/04/30 15:54:50;;;;;;;13.02;6.60;;;;;;;;;;6291773;22;20016;-76
2023/04/30 15:57:36;;;;;;;8.45;5.25;;;;;;;;;;6288440;22;20023;-79
2023/04/30 16:00:25;;;;;;;6.55;4.43;;;;;;;;;;6278103;22;20019;-77
2023/04/30 16:03:16;;;;;;;9.75;6.13;;;;;;;;;;6288772;22;20015;-77
2023/04/30 16:06:07;;;;;;;10.50;6.85;;;;;;;;;;6287715;22;20453;-78
2023/04/30 16:08:57;;;;;;;12.38;6.68;;;;;;;;;;6287626;22;20020;-78
2023/04/30 16:11:50;;;;;;;12.07;6.20;;;;;;;;;;6287924;22;20015;-77
2023/04/30 16:14:40;;;;;;;10.52;7.47;;;;;;;;;;6287610;22;20429;-78
2023/04/30 16:17:26;;;;;;;14.02;9.45;;;;;;;;;;6287884;22;20015;-76
2023/04/30 16:20:17;;;;;;;17.40;10.18;;;;;;;;;;6287372;22;20019;-76
2023/04/30 16:23:04;;;;;;;19.15;12.75;;;;;;;;;;6287352;22;20016;-78
2023/04/30 16:25:50;;;;;;;12.55;8.82;;;;;;;;;;6286519;22;20019;-77
2023/04/30 16:28:36;;;;;;;23.38;13.23;;;;;;;;;;6280752;22;20019;-78
2023/04/30 16:31:23;;;;;;;19.40;13.38;;;;;;;;;;6286987;22;20015;-78
2023/04/30 16:34:10;;;;;;;19.90;13.18;;;;;;;;;;6286838;22;20019;-78